Terminal Aerodrome Forecast
Issued by NWS

Home | Current Version | Previous Version | Text Only | Print | Product List | Glossary On
Versions: 1 2 3 4 5 6 7 8 9 10 11 12 13 14 15
000
FTUS43 KILX 011100 RRA
TAFCMI
TAF
KCMI 011149Z 0112/0212 11006KT 1 1/2SM -SN BR SCT006 OVC015
      TEMPO 0112/0115 3/4SM -SN BR BKN006
     FM011600 VRB03KT 2SM -SN BR SCT006 OVC012
     FM012100 29008KT P6SM OVC015
     FM020400 29012KT P6SM SCT025 BKN200=

USA.gov is the U.S. government's official web portal to all federal, state and local government web resources and services.